Terminal Aerodrome Forecast
Issued by NWS

Home | Current Version | Previous Version | Text Only | Print | Product List | Glossary On
Versions: 1 2 3 4 5 6 7 8 9 10 11 12 13 14 15 16 17 18 19 20 21 22 23 24 25 26 27 28 29 30 31 32 33 34 35 36 37 38 39 40
000
FTUS43 KLOT 271400 AAA
TAFORD
TAF AMD
KORD 271403Z 2714/2818 04010KT P6SM OVC018
     FM272000 04007KT P6SM SCT030 SCT250
     FM280100 VRB03KT P6SM SCT250
     FM281400 17008KT P6SM FEW150 BKN200=

USA.gov is the U.S. government's official web portal to all federal, state and local government web resources and services.